• Join FlightAware (Why Join?)
  • Login
  • US Flag 
10:59AM EDT


 

Airport Tracker/Info


-or-


 

Live Flight TrackerFlight Track Log ✈ JBU2480 ✈ 26-Aug-2014 ✈ KEWR - KBOS

Flight Track Log - Related Links

Times and Time Zones

All times are in EDT time to prevent confusion due to time zone crossing. See the JBU2480 flight status page for this flight to view local times or setup timezone preferences in your user account.

Time Position Orientation Groundspeed Altitude Reporting Facility
EDT Latitude Longitude Course Direction KTS MPH feet Rate Location/Type
02:09PM 40.6500 -74.1833 51° Northeast 176 203 2,000  Level New York TRACON
02:12PM 40.7331 -74.1681 North 252 290 9,000 2,640 Climbing Boston Center
02:13PM 40.7781 -74.0808 56° Northeast 290 334 11,000 1,440 Climbing Boston Center
02:14PM 40.8533 -73.9686 48° Northeast 347 399 12,000 1,560 Climbing Boston Center
02:15PM 40.9476 -73.7064 51° Northeast  Level Estimated
02:15PM 40.9183 -73.8661 50° Northeast 360 414 14,200  Level Boston Center
02:17PM 41.0594 -73.6461 50° Northeast 382 440 18,200 1,500 Climbing Boston Center
02:18PM 41.1356 -73.5261 50° Northeast 392 451 19,000 360 Climbing Boston Center
02:19PM 41.2075 -73.4144 49° Northeast 399 459 19,000  Level Boston Center
02:20PM 41.2819 -73.2986 49° Northeast 398 458 19,000  Level Boston Center
02:21PM 41.3583 -73.1767 50° Northeast 398 458 19,000  Level Boston Center
02:22PM 41.3939 -73.0378 71° East 403 464 19,000  Level Boston Center
02:23PM 41.4092 -72.8886 82° East 405 466 19,000  Level Boston Center
02:24PM 41.4264 -72.7286 82° East 406 467 19,000  Level Boston Center
02:25PM 41.4419 -72.5808 82° East 406 467 19,000  Level Boston Center
02:26PM 41.4583 -72.4208 82° East 406 467 19,000  Level Boston Center
02:27PM 41.4725 -72.2781 82° East 395 455 19,000  Level Boston Center
02:28PM 41.5053 -72.1403 72° East 393 452 19,000 -300 Level Boston Center
02:29PM 41.5550 -72.0022 64° Northeast 385 443 18,400 -1,140 Descending Boston Center
02:30PM 41.5939 -71.8725 68° East 382 440 16,700 -1,680 Descending Boston Center
02:31PM 41.6347 -71.7364 68° East 372 428 15,000 -1,620 Descending Boston Center
02:32PM 41.6697 -71.6150 69° East 358 412 13,400 -1,500 Descending Boston Center
02:33PM 41.7067 -71.4908 68° East 340 391 11,900 -1,200 Descending Boston Center
02:34PM 41.7764 -71.4331 32° Northeast 304 350 11,000 -480 Descending Boston Center
02:35PM 41.8581 -71.3803 26° Northeast 304 350 11,000 -660 Level Boston Center
02:36PM 41.9331 -71.3319 26° Northeast 302 348 9,700 -1,380 Descending Boston Center
02:38PM 42.0058 -71.2850 26° Northeast 295 339 8,200 -960 Descending Boston Center
02:39PM 42.0703 -71.2358 30° Northeast 246 283 7,800 -660 Descending Boston Center
02:40PM 42.1186 -71.2047 26° Northeast 194 223 6,900 -1,080 Descending Boston Center
02:41PM 42.1686 -71.1700 27° Northeast 189 217 5,600 -1,260 Descending Boston Center
02:42PM 42.2158 -71.1425 23° Northeast 187 215 4,400 -1,140 Descending Boston Center
02:43PM 42.2547 -71.0956 42° Northeast 187 215 3,300 -1,260 Descending Boston Center
02:44PM 42.3000 -71.0500 37° Northeast 187 215 1,900 -1,320 Descending Boston Center
02:45PM 42.3400 -71.0194 29° Northeast 174 200 600 -840 Descending Boston Center
02:46PM 42.3778 -71.0006 20° North 169 194 200 -420 Descending Boston Center